Time;durP1;ratioP1;P1;durP2;ratioP2;P2;SDS_P1;SDS_P2;PMS_P1;PMS_P2;Temp;Humidity;BMP_temperature;BMP_pressure;BME280_temperature;BME280_humidity;BME280_pressure;Samples;Min_cycle;Max_cycle;Signal;HPM_P1;HPM_P2
2022/04/29 00:00:18;;;;;;;7.07;6.37;;;6.90;99.90;;;;;;4917833;29;20180;-71
2022/04/29 00:02:46;;;;;;;6.90;6.23;;;6.80;99.90;;;;;;4917414;29;20436;-71
2022/04/29 00:05:13;;;;;;;8.70;7.73;;;6.80;99.90;;;;;;4917806;29;20532;-72
2022/04/29 00:07:39;;;;;;;12.00;6.77;;;6.70;99.90;;;;;;4917421;29;20479;-72
2022/04/29 00:10:12;;;;;;;8.60;6.40;;;6.70;99.90;;;;;;4917655;29;20431;-72
2022/04/29 00:12:48;;;;;;;9.93;7.33;;;6.70;99.90;;;;;;4917151;29;20443;-71
2022/04/29 00:15:15;;;;;;;9.53;5.77;;;6.70;99.90;;;;;;4916365;29;20476;-71
2022/04/29 00:17:42;;;;;;;6.83;6.23;;;6.70;99.90;;;;;;4917230;29;20418;-71
2022/04/29 00:20:09;;;;;;;6.80;6.20;;;6.70;99.90;;;;;;4917679;29;20524;-72
2022/04/29 00:22:35;;;;;;;11.80;6.20;;;6.60;99.90;;;;;;4916911;29;20832;-72
2022/04/29 00:25:00;;;;;;;9.20;6.53;;;6.60;99.90;;;;;;4917447;29;20579;-72
2022/04/29 00:27:27;;;;;;;7.23;6.53;;;6.60;99.90;;;;;;4917368;29;20293;-71
2022/04/29 00:29:52;;;;;;;10.43;7.33;;;6.60;99.90;;;;;;4917242;29;20190;-72
2022/04/29 00:32:18;;;;;;;7.20;6.50;;;6.60;99.90;;;;;;4916728;29;20449;-72
2022/04/29 00:34:43;;;;;;;7.60;6.80;;;6.50;99.90;;;;;;4916993;29;20245;-71
2022/04/29 00:37:10;;;;;;;10.80;7.23;;;6.50;99.90;;;;;;4917178;29;20178;-71
2022/04/29 00:39:36;;;;;;;7.70;6.80;;;6.40;99.90;;;;;;4916838;29;20174;-71
2022/04/29 00:42:24;;;;;;;10.37;7.50;;;6.40;99.90;;;;;;4917159;29;20459;-72
2022/04/29 00:44:50;;;;;;;10.63;6.07;;;6.30;99.90;;;;;;4917768;29;20513;-72
2022/04/29 00:47:18;;;;;;;9.93;6.63;;;6.30;99.90;;;;;;4917409;29;20435;-71
2022/04/29 00:49:45;;;;;;;7.33;6.27;;;6.30;99.90;;;;;;4917100;29;20571;-72
2022/04/29 00:52:17;;;;;;;9.60;6.87;;;6.30;99.90;;;;;;4916720;29;20431;-71
2022/04/29 00:54:45;;;;;;;9.63;7.80;;;6.30;99.90;;;;;;4916726;29;20453;-71
2022/04/29 00:57:19;;;;;;;12.73;7.03;;;6.20;99.90;;;;;;4916847;29;20396;-72
2022/04/29 01:00:01;;;;;;;9.10;6.90;;;6.20;99.90;;;;;;4915990;29;20414;-72
2022/04/29 02:32:32;;;;;;;9.00;6.87;;;5.50;99.90;;;;;;5222946;23;20514;-72
2022/04/29 02:34:58;;;;;;;9.77;8.20;;;5.40;99.90;;;;;;4932943;29;20476;-71
2022/04/29 02:37:24;;;;;;;8.10;7.30;;;5.40;99.90;;;;;;4933266;29;20189;-72
2022/04/29 02:39:49;;;;;;;11.30;8.13;;;5.30;99.90;;;;;;4934121;29;20200;-72
2022/04/29 02:42:15;;;;;;;10.27;8.27;;;5.30;99.90;;;;;;4933090;29;20464;-72
2022/04/29 02:44:41;;;;;;;10.37;9.37;;;5.30;99.90;;;;;;4934045;29;20619;-72
2022/04/29 02:47:06;;;;;;;8.17;7.50;;;5.30;99.90;;;;;;4936169;29;20266;-73
2022/04/29 02:49:32;;;;;;;8.83;7.57;;;5.30;99.90;;;;;;4919297;29;20187;-73
2022/04/29 02:51:57;;;;;;;9.60;8.10;;;5.30;99.90;;;;;;4917556;29;20207;-73
2022/04/29 02:54:23;;;;;;;8.10;7.40;;;5.30;99.90;;;;;;4915223;29;20278;-72
2022/04/29 02:56:52;;;;;;;10.30;8.20;;;5.30;99.90;;;;;;4915305;29;20178;-72
2022/04/29 02:59:18;;;;;;;10.33;7.80;;;5.30;99.90;;;;;;4915060;29;20449;-72
2022/04/29 03:01:45;;;;;;;16.63;9.83;;;5.20;99.90;;;;;;4914852;29;20491;-72
2022/04/29 03:04:10;;;;;;;10.00;8.90;;;5.20;99.90;;;;;;4914949;29;20181;-72
2022/04/29 03:06:36;;;;;;;10.17;9.03;;;5.10;99.90;;;;;;4914774;29;20425;-72
2022/04/29 03:09:01;;;;;;;10.77;8.17;;;5.10;99.90;;;;;;4915060;29;20189;-72
2022/04/29 03:11:27;;;;;;;10.83;7.83;;;5.10;99.90;;;;;;4921026;29;20569;-72
2022/04/29 03:13:53;;;;;;;10.50;8.37;;;5.10;99.90;;;;;;4933921;29;20188;-72
2022/04/29 03:16:18;;;;;;;14.37;8.50;;;5.10;99.90;;;;;;4933662;29;20923;-72
2022/04/29 03:18:44;;;;;;;11.37;8.40;;;5.10;99.90;;;;;;4934048;29;20177;-73
2022/04/29 03:21:10;;;;;;;8.47;7.67;;;5.00;99.90;;;;;;4933454;29;20188;-72
2022/04/29 03:23:36;;;;;;;9.20;7.43;;;5.00;99.90;;;;;;4935708;29;20247;-74
2022/04/29 03:26:03;;;;;;;10.37;8.67;;;5.00;99.90;;;;;;4937403;29;20426;-73
2022/04/29 03:28:29;;;;;;;8.93;8.03;;;5.00;99.90;;;;;;4937248;29;20186;-72
2022/04/29 03:30:54;;;;;;;9.60;7.80;;;4.90;99.90;;;;;;4937065;29;20544;-72
2022/04/29 03:33:20;;;;;;;11.43;9.30;;;4.90;99.90;;;;;;4935981;29;20236;-72
2022/04/29 03:35:47;;;;;;;8.80;7.93;;;4.90;99.90;;;;;;4937237;29;20220;-72
2022/04/29 03:38:13;;;;;;;12.43;8.37;;;4.90;99.90;;;;;;4937287;29;20177;-72
2022/04/29 03:40:39;;;;;;;10.73;8.37;;;4.90;99.90;;;;;;4937250;29;20421;-72
2022/04/29 03:43:05;;;;;;;9.47;8.57;;;4.90;99.90;;;;;;4937024;29;20515;-71
2022/04/29 03:45:31;;;;;;;9.53;8.50;;;4.90;99.90;;;;;;4937122;29;20646;-72
2022/04/29 03:47:56;;;;;;;12.07;10.00;;;4.90;99.90;;;;;;4937089;29;20434;-72
2022/04/29 03:50:23;;;;;;;10.20;8.33;;;4.90;99.90;;;;;;4936870;29;20189;-72
2022/04/29 03:53:02;;;;;;;9.37;8.37;;;4.90;99.90;;;;;;4936787;29;20637;-72
2022/04/29 03:55:32;;;;;;;10.20;8.37;;;4.90;99.90;;;;;;4936357;29;20529;-73
2022/04/29 03:57:59;;;;;;;10.53;9.00;;;4.90;99.90;;;;;;4936919;29;21170;-72
2022/04/29 04:00:26;;;;;;;11.80;8.60;;;4.90;99.90;;;;;;4936591;29;20419;-72
2022/04/29 04:02:52;;;;;;;12.90;9.00;;;5.00;99.90;;;;;;4936650;29;20439;-72
2022/04/29 04:05:18;;;;;;;11.57;9.30;;;5.00;99.90;;;;;;4936632;29;20441;-71
2022/04/29 04:07:45;;;;;;;10.30;8.33;;;5.00;99.90;;;;;;4936774;29;20404;-71
2022/04/29 04:10:11;;;;;;;10.13;8.90;;;5.00;99.90;;;;;;4936513;29;20420;-71
2022/04/29 04:12:42;;;;;;;13.73;9.43;;;4.90;99.90;;;;;;4936450;29;20420;-71
2022/04/29 04:15:09;;;;;;;10.97;8.10;;;4.90;99.90;;;;;;4936484;29;20476;-72
2022/04/29 04:17:35;;;;;;;12.00;9.13;;;5.00;99.90;;;;;;4936408;29;20425;-71
2022/04/29 04:20:01;;;;;;;11.13;9.10;;;5.10;99.90;;;;;;4936501;29;20475;-71
2022/04/29 04:22:29;;;;;;;9.07;8.17;;;5.10;99.90;;;;;;4935996;29;20235;-72
2022/04/29 04:24:59;;;;;;;11.73;9.17;;;5.10;99.90;;;;;;4936731;29;20945;-71
2022/04/29 04:27:25;;;;;;;11.60;8.93;;;5.10;99.90;;;;;;4936190;29;20445;-72
2022/04/29 04:29:50;;;;;;;14.33;8.80;;;5.20;99.90;;;;;;4936236;29;20461;-71
2022/04/29 04:32:16;;;;;;;11.43;9.47;;;5.30;99.90;;;;;;4935580;29;20223;-71
2022/04/29 04:34:50;;;;;;;12.07;9.80;;;5.40;99.90;;;;;;4935928;29;20240;-77
2022/04/29 04:37:20;;;;;;;9.83;8.83;;;5.50;99.90;;;;;;4936071;29;20268;-71
2022/04/29 04:39:46;;;;;;;11.90;10.00;;;5.60;99.90;;;;;;4936214;29;20417;-71
2022/04/29 04:42:11;;;;;;;11.60;8.90;;;5.60;99.90;;;;;;4935677;29;20504;-71
2022/04/29 04:44:37;;;;;;;13.60;8.87;;;5.70;99.90;;;;;;4936275;29;20420;-71
2022/04/29 04:47:05;;;;;;;11.03;9.00;;;5.80;99.90;;;;;;4935948;29;20189;-70
2022/04/29 04:49:31;;;;;;;10.17;8.40;;;5.90;99.90;;;;;;4935907;29;20559;-69
2022/04/29 04:51:56;;;;;;;10.67;9.60;;;5.90;99.90;;;;;;4935629;29;20517;-71
2022/04/29 04:54:22;;;;;;;11.23;9.23;;;6.00;99.90;;;;;;4935681;29;20230;-71
2022/04/29 04:56:47;;;;;;;8.63;7.83;;;6.10;99.90;;;;;;4935780;29;20531;-71
2022/04/29 04:59:13;;;;;;;12.83;9.73;;;6.20;99.90;;;;;;4935764;29;20190;-71
2022/04/29 05:01:38;;;;;;;13.23;8.93;;;6.40;99.90;;;;;;4935486;29;20578;-72
2022/04/29 05:04:04;;;;;;;21.83;9.47;;;6.50;99.90;;;;;;4935611;29;20229;-71
2022/04/29 05:06:29;;;;;;;10.77;9.43;;;6.60;99.90;;;;;;4935385;29;20198;-72
2022/04/29 05:08:55;;;;;;;10.20;8.43;;;6.70;99.90;;;;;;4929193;29;20199;-71
2022/04/29 05:11:20;;;;;;;10.63;9.10;;;6.80;99.90;;;;;;4930979;29;20355;-71
2022/04/29 05:13:46;;;;;;;10.10;8.90;;;7.00;99.90;;;;;;4944818;29;20198;-71
2022/04/29 05:16:11;;;;;;;9.90;9.00;;;7.20;99.90;;;;;;4943353;29;20199;-71
2022/04/29 05:18:37;;;;;;;12.53;8.47;;;7.40;99.90;;;;;;4946584;28;20638;-71
2022/04/29 05:21:03;;;;;;;9.17;7.80;;;7.70;99.90;;;;;;4945868;28;20204;-71
2022/04/29 05:23:29;;;;;;;15.07;8.50;;;8.10;99.90;;;;;;4947836;28;20190;-72
2022/04/29 05:25:54;;;;;;;10.63;9.07;;;8.40;99.90;;;;;;4936034;28;20221;-70
2022/04/29 05:28:20;;;;;;;8.77;7.97;;;8.60;99.90;;;;;;4927950;29;20191;-72
2022/04/29 05:30:45;;;;;;;8.70;7.87;;;8.70;99.90;;;;;;4929478;29;20211;-71
2022/04/29 05:33:11;;;;;;;11.37;8.07;;;8.80;99.90;;;;;;4933488;29;20202;-70
2022/04/29 05:35:38;;;;;;;10.57;8.53;;;8.80;99.90;;;;;;4933254;29;20206;-71
2022/04/29 05:38:03;;;;;;;11.23;10.13;;;8.90;99.90;;;;;;4933069;29;20179;-71
2022/04/29 05:43:13;;;;;;;12.73;8.90;;;9.00;99.90;;;;;;4932780;29;20550;-71
2022/04/29 05:45:39;;;;;;;11.10;9.10;;;9.10;99.90;;;;;;4932478;29;20419;-72
2022/04/29 05:48:06;;;;;;;9.37;8.43;;;9.30;99.90;;;;;;4932839;29;20190;-71
2022/04/29 05:50:31;;;;;;;11.30;8.80;;;9.60;99.90;;;;;;4934571;29;20724;-71
2022/04/29 05:52:57;;;;;;;9.13;8.20;;;9.90;99.90;;;;;;4934674;29;20448;-71
2022/04/29 05:55:22;;;;;;;11.27;7.87;;;10.30;99.90;;;;;;4934720;29;20303;-72
2022/04/29 05:57:48;;;;;;;8.87;8.00;;;10.70;99.90;;;;;;4934772;29;20204;-72
2022/04/29 06:00:14;;;;;;;16.17;7.97;;;11.40;99.90;;;;;;4934557;29;20170;-72
2022/04/29 06:02:40;;;;;;;10.40;7.63;;;12.30;99.90;;;;;;4934101;29;20422;-71
2022/04/29 06:05:06;;;;;;;8.37;7.27;;;13.30;99.90;;;;;;4934629;29;20787;-72
2022/04/29 06:07:32;;;;;;;8.77;7.93;;;14.40;99.90;;;;;;4934695;29;20479;-71
2022/04/29 06:09:57;;;;;;;9.47;8.57;;;15.70;99.90;;;;;;4934591;29;20865;-71
2022/04/29 06:12:23;;;;;;;10.10;9.10;;;16.50;99.90;;;;;;4933933;29;20213;-72
2022/04/29 06:14:48;;;;;;;11.53;9.83;;;16.90;99.90;;;;;;4934606;29;20205;-72
2022/04/29 06:17:14;;;;;;;9.47;8.50;;;16.90;99.90;;;;;;4934240;29;20173;-71
2022/04/29 06:19:40;;;;;;;10.70;9.60;;;16.50;99.90;;;;;;4934449;29;20184;-71
2022/04/29 06:22:06;;;;;;;13.27;9.00;;;16.10;99.90;;;;;;4933931;29;20194;-71
2022/04/29 06:24:33;;;;;;;10.17;9.27;;;15.50;99.90;;;;;;4936001;29;20496;-71
2022/04/29 06:26:59;;;;;;;12.57;9.40;;;15.20;99.90;;;;;;4937595;29;20417;-72
2022/04/29 06:29:25;;;;;;;10.13;8.90;;;15.20;99.90;;;;;;4934572;29;20424;-72
2022/04/29 06:31:51;;;;;;;12.03;9.03;;;15.10;99.90;;;;;;4938222;29;20523;-71
2022/04/29 06:34:17;;;;;;;12.57;9.43;;;15.30;99.90;;;;;;4933539;29;21037;-73
2022/04/29 06:36:43;;;;;;;11.70;10.33;;;15.40;99.90;;;;;;4934979;29;20178;-72
2022/04/29 06:39:14;;;;;;;11.10;9.97;;;15.50;99.90;;;;;;4919184;29;20205;-72
2022/04/29 06:41:41;;;;;;;9.93;9.03;;;15.40;99.90;;;;;;4934458;29;20678;-69
2022/04/29 06:44:07;;;;;;;15.60;10.20;;;15.60;99.90;;;;;;4934481;29;20476;-72
2022/04/29 06:46:32;;;;;;;10.50;9.40;;;16.00;99.90;;;;;;4934308;29;20421;-72
2022/04/29 06:48:58;;;;;;;11.40;10.20;;;16.30;99.90;;;;;;4933413;29;20537;-72
2022/04/29 06:51:24;;;;;;;13.47;12.00;;;16.50;99.90;;;;;;4933837;29;20208;-73
2022/04/29 06:53:49;;;;;;;10.33;9.20;;;17.00;99.90;;;;;;4933537;29;20191;-71
2022/04/29 06:56:15;;;;;;;11.43;10.07;;;17.30;99.90;;;;;;4930685;29;20670;-72
2022/04/29 06:58:41;;;;;;;13.00;10.70;;;17.20;99.90;;;;;;4937688;29;20557;-72
2022/04/29 07:01:07;;;;;;;18.53;10.40;;;17.10;99.90;;;;;;4937508;29;20564;-71
2022/04/29 07:03:32;;;;;;;10.53;9.57;;;17.30;99.90;;;;;;4938062;29;20472;-72
2022/04/29 07:06:00;;;;;;;13.20;10.30;;;17.50;99.90;;;;;;4937810;29;20177;-72
2022/04/29 07:08:26;;;;;;;15.37;10.33;;;17.50;99.90;;;;;;4937781;29;20173;-72
2022/04/29 07:10:52;;;;;;;15.90;12.00;;;17.60;99.90;;;;;;4937363;29;20424;-72
2022/04/29 07:13:18;;;;;;;15.50;10.10;;;17.40;99.90;;;;;;4937616;29;20421;-72
2022/04/29 07:15:44;;;;;;;13.37;11.40;;;17.40;99.90;;;;;;4937688;29;20479;-72
2022/04/29 07:18:12;;;;;;;17.57;11.60;;;17.30;99.90;;;;;;4937389;29;20185;-70
2022/04/29 07:20:38;;;;;;;16.00;12.33;;;17.10;99.90;;;;;;4941378;29;20173;-72
2022/04/29 07:23:04;;;;;;;19.47;11.30;;;17.20;99.90;;;;;;4948700;28;20434;-72
2022/04/29 07:25:30;;;;;;;17.97;11.93;;;17.10;99.90;;;;;;4956785;28;20180;-71
2022/04/29 07:27:55;;;;;;;20.20;11.73;;;17.20;99.90;;;;;;4943510;28;20491;-70
2022/04/29 07:30:21;;;;;;;12.47;10.40;;;17.00;99.90;;;;;;4937644;29;20189;-70
2022/04/29 07:32:46;;;;;;;12.80;10.83;;;16.80;99.90;;;;;;4937008;29;20224;-71
2022/04/29 07:43:25;;;;;;;12.77;10.27;;;17.50;99.90;;;;;;4956176;29;21068;-70
2022/04/29 07:45:51;;;;;;;10.67;9.03;;;17.70;99.90;;;;;;4956438;28;20468;-70
2022/04/29 07:48:18;;;;;;;15.67;10.60;;;17.80;99.90;;;;;;4955443;28;20204;-70
2022/04/29 07:50:43;;;;;;;15.37;10.03;;;17.90;99.90;;;;;;4957585;28;20658;-70
2022/04/29 07:53:09;;;;;;;13.63;10.67;;;18.10;99.90;;;;;;4951369;28;20512;-70
2022/04/29 07:55:35;;;;;;;18.67;11.57;;;18.00;99.90;;;;;;4948408;29;20215;-71
2022/04/29 07:58:03;;;;;;;14.00;11.00;;;17.90;99.90;;;;;;4955483;28;20390;-71
2022/04/29 08:00:31;;;;;;;12.47;10.90;;;17.80;99.90;;;;;;4955571;28;20866;-70
2022/04/29 08:02:56;;;;;;;19.97;11.03;;;17.60;99.90;;;;;;4955854;29;20811;-71
2022/04/29 08:05:22;;;;;;;27.37;11.20;;;17.50;99.90;;;;;;4955636;28;20423;-71
2022/04/29 08:07:47;;;;;;;16.17;10.17;;;17.50;99.90;;;;;;4955509;28;20261;-72
2022/04/29 08:10:13;;;;;;;12.33;11.03;;;17.20;99.90;;;;;;4954974;28;20255;-71
2022/04/29 08:12:39;;;;;;;19.40;11.10;;;17.20;99.90;;;;;;4955685;28;20236;-72
2022/04/29 08:15:05;;;;;;;13.93;10.70;;;17.10;99.90;;;;;;4955441;28;20205;-71
2022/04/29 08:17:31;;;;;;;13.10;10.47;;;17.50;99.90;;;;;;4946956;28;20174;-71
2022/04/29 08:19:58;;;;;;;12.00;10.63;;;18.20;99.90;;;;;;4936518;29;21010;-71
2022/04/29 08:22:24;;;;;;;12.13;10.03;;;18.90;99.90;;;;;;4935936;29;20277;-71
2022/04/29 08:24:50;;;;;;;13.60;11.07;;;19.40;99.90;;;;;;4936476;29;20425;-72
2022/04/29 08:27:16;;;;;;;14.87;10.53;;;19.80;99.90;;;;;;4944264;29;20432;-71
2022/04/29 08:29:41;;;;;;;13.83;11.10;;;20.30;99.90;;;;;;4955690;28;20173;-71
2022/04/29 08:32:07;;;;;;;20.77;11.13;;;21.00;99.90;;;;;;4953488;29;20464;-71
2022/04/29 08:34:35;;;;;;;11.00;9.90;;;21.40;99.90;;;;;;4954767;29;20582;-72
2022/04/29 08:37:03;;;;;;;13.10;9.73;;;21.70;99.90;;;;;;4955051;28;20280;-71
2022/04/29 08:39:30;;;;;;;19.00;10.67;;;22.10;99.90;;;;;;4954949;28;20413;-71
2022/04/29 08:42:01;;;;;;;16.67;8.97;;;22.00;99.90;;;;;;4954886;28;20432;-72
2022/04/29 08:44:30;;;;;;;12.77;7.53;;;22.40;99.90;;;;;;4955229;28;20421;-72
2022/04/29 08:46:56;;;;;;;13.53;8.40;;;22.40;98.50;;;;;;4954631;28;20416;-71
2022/04/29 08:49:25;;;;;;;9.03;8.17;;;22.80;98.00;;;;;;4954811;28;20500;-71
2022/04/29 08:51:51;;;;;;;9.10;8.20;;;23.20;98.40;;;;;;4954933;28;20440;-71
2022/04/29 08:59:58;;;;;;;12.33;8.27;;;22.90;98.70;;;;;;4954955;29;20420;-72
2022/04/29 09:02:26;;;;;;;14.40;9.47;;;23.00;97.80;;;;;;4952948;29;20443;-71
2022/04/29 09:04:53;;;;;;;13.10;9.20;;;23.50;98.20;;;;;;4955007;28;20975;-72
2022/04/29 09:07:19;;;;;;;16.60;9.07;;;23.80;97.80;;;;;;4954404;28;20916;-72
2022/04/29 09:10:02;;;;;;;11.97;8.10;;;23.80;96.60;;;;;;4954802;28;20428;-72
2022/04/29 09:12:28;;;;;;;19.53;8.27;;;23.80;97.00;;;;;;4954440;28;20915;-72
2022/04/29 09:15:11;;;;;;;12.47;8.10;;;23.90;96.40;;;;;;4954911;28;20503;-72
2022/04/29 09:17:39;;;;;;;12.20;7.30;;;24.20;96.40;;;;;;4954582;28;20185;-73
2022/04/29 09:20:12;;;;;;;10.50;7.90;;;24.30;94.20;;;;;;4952190;28;20429;-71
2022/04/29 09:22:41;;;;;;;9.17;6.33;;;24.30;92.90;;;;;;4954061;28;20838;-72
2022/04/29 09:25:07;;;;;;;7.13;6.43;;;24.10;92.10;;;;;;4954295;28;20448;-71
2022/04/29 09:28:02;;;;;;;7.20;6.00;;;24.00;91.30;;;;;;4953867;28;20416;-72
2022/04/29 09:30:35;;;;;;;7.07;6.37;;;23.80;91.20;;;;;;4953986;28;20423;-71
2022/04/29 09:33:01;;;;;;;7.33;6.60;;;24.00;90.80;;;;;;4954337;28;20822;-72
2022/04/29 09:35:42;;;;;;;9.47;6.17;;;24.00;89.20;;;;;;4954071;28;20464;-72
2022/04/29 09:40:54;;;;;;;6.63;6.00;;;23.70;90.20;;;;;;4935113;29;20416;-73
2022/04/29 09:43:33;;;;;;;7.10;5.67;;;23.70;91.20;;;;;;4934753;29;20413;-73
2022/04/29 09:46:16;;;;;;;7.67;5.67;;;23.80;89.40;;;;;;4935150;29;20417;-73
2022/04/29 09:49:03;;;;;;;7.10;6.43;;;23.60;88.20;;;;;;4934823;29;20422;-72
2022/04/29 09:51:51;;;;;;;8.93;6.00;;;23.60;87.90;;;;;;4934648;29;20469;-72
2022/04/29 09:54:28;;;;;;;9.30;5.83;;;23.70;88.00;;;;;;4934787;29;20464;-72
2022/04/29 09:57:02;;;;;;;7.40;6.23;;;23.70;88.70;;;;;;4934813;29;20416;-72
2022/04/29 09:59:35;;;;;;;7.00;6.30;;;23.20;87.40;;;;;;4933475;29;20432;-72
2022/04/29 10:02:01;;;;;;;5.90;5.03;;;22.60;91.70;;;;;;4933769;29;20457;-72
2022/04/29 10:04:34;;;;;;;7.97;5.97;;;22.60;90.80;;;;;;4934732;29;20452;-72
2022/04/29 10:07:04;;;;;;;9.07;6.20;;;22.40;90.40;;;;;;4934408;29;20477;-73
2022/04/29 10:09:34;;;;;;;5.93;5.43;;;22.30;91.50;;;;;;4935106;29;20504;-71
2022/04/29 10:12:02;;;;;;;6.10;5.50;;;22.20;89.10;;;;;;4934251;29;20433;-71
2022/04/29 10:14:30;;;;;;;6.97;5.70;;;21.90;90.50;;;;;;4932729;29;20473;-71
2022/04/29 10:22:50;;;;;;;4.60;4.20;;;22.10;90.20;;;;;;4923000;29;20865;-71
2022/04/29 10:25:16;;;;;;;9.27;5.30;;;22.30;88.20;;;;;;4934107;29;20928;-71
2022/04/29 10:27:43;;;;;;;7.03;4.90;;;22.50;88.20;;;;;;4933995;29;20476;-71
2022/04/29 10:30:09;;;;;;;5.90;5.40;;;22.30;88.50;;;;;;4933925;29;20451;-71
2022/04/29 10:33:16;;;;;;;4.63;4.20;;;22.20;86.20;;;;;;4932985;29;20464;-70
2022/04/29 10:35:49;;;;;;;4.57;4.27;;;21.90;91.30;;;;;;4912204;29;20513;-71
2022/04/29 10:38:31;;;;;;;4.40;3.90;;;22.40;87.60;;;;;;4928183;29;20871;-72
2022/04/29 10:41:17;;;;;;;3.70;3.50;;;23.10;85.60;;;;;;4933513;29;20465;-71
2022/04/29 10:43:47;;;;;;;4.93;3.60;;;23.10;82.60;;;;;;4934947;29;20416;-73
2022/04/29 10:46:32;;;;;;;7.40;3.90;;;23.10;85.50;;;;;;4940681;28;20421;-72
2022/04/29 10:49:17;;;;;;;3.73;3.43;;;23.60;81.80;;;;;;4934061;29;20421;-72
2022/04/29 10:51:49;;;;;;;3.93;3.63;;;23.70;87.80;;;;;;4933718;29;20452;-73
2022/04/29 10:54:15;;;;;;;3.93;3.60;;;24.40;82.70;;;;;;4932530;29;20461;-73
2022/04/29 10:56:41;;;;;;;4.67;4.27;;;24.60;82.90;;;;;;4933885;29;20421;-73
2022/04/29 10:59:06;;;;;;;4.00;3.60;;;24.60;80.50;;;;;;4934238;29;20257;-72
2022/04/29 11:01:35;;;;;;;3.90;3.67;;;24.80;79.80;;;;;;4933759;29;20220;-73
2022/04/29 11:04:02;;;;;;;4.30;3.90;;;24.50;76.80;;;;;;4934134;29;20260;-73
2022/04/29 11:06:38;;;;;;;3.70;3.40;;;24.00;76.80;;;;;;4933285;29;20515;-73
2022/04/29 11:09:23;;;;;;;3.97;3.57;;;23.80;74.80;;;;;;4933948;29;20413;-72
2022/04/29 11:11:49;;;;;;;4.00;3.50;;;23.10;76.50;;;;;;4933980;29;20440;-73
2022/04/29 11:14:15;;;;;;;5.13;3.77;;;23.30;78.50;;;;;;4931078;29;20473;-72
2022/04/29 11:16:52;;;;;;;4.73;4.07;;;22.90;76.70;;;;;;4937177;29;20181;-71
2022/04/29 11:19:27;;;;;;;2.90;2.70;;;22.50;75.60;;;;;;4944417;28;20440;-72
2022/04/29 11:24:43;;;;;;;7.60;4.70;;;22.30;79.50;;;;;;4949652;29;20478;-72
2022/04/29 11:27:09;;;;;;;4.43;3.00;;;22.50;86.60;;;;;;4950519;28;20424;-72
2022/04/29 11:29:46;;;;;;;3.10;2.90;;;22.40;79.10;;;;;;4950920;28;20424;-72
2022/04/29 11:32:12;;;;;;;14.20;4.80;;;22.00;78.30;;;;;;4949301;28;20471;-72
2022/04/29 11:34:55;;;;;;;4.90;3.20;;;21.80;77.70;;;;;;4916353;29;20551;-71
2022/04/29 11:37:26;;;;;;;4.50;2.93;;;21.40;77.30;;;;;;4930674;29;20965;-72
2022/04/29 11:39:55;;;;;;;5.10;3.80;;;21.50;80.10;;;;;;4931066;29;20436;-72
2022/04/29 11:42:21;;;;;;;6.17;3.30;;;21.70;82.20;;;;;;4948346;29;20847;-72
2022/04/29 11:44:49;;;;;;;7.33;2.97;;;22.00;81.70;;;;;;4951480;28;20425;-72
2022/04/29 11:47:16;;;;;;;4.03;3.20;;;22.10;84.00;;;;;;4951920;29;20457;-72
2022/04/29 11:49:43;;;;;;;4.77;3.10;;;22.00;81.00;;;;;;4953149;28;20435;-72
2022/04/29 11:52:24;;;;;;;5.83;2.70;;;21.90;83.00;;;;;;4950945;28;20982;-71
2022/04/29 11:54:54;;;;;;;4.40;3.00;;;21.80;78.70;;;;;;4946303;28;20480;-72
2022/04/29 11:57:24;;;;;;;3.47;2.80;;;21.70;79.10;;;;;;4951170;28;20908;-69
2022/04/29 11:59:50;;;;;;;3.73;3.10;;;21.80;82.20;;;;;;4940424;28;20432;-70
2022/04/29 12:02:17;;;;;;;4.93;3.43;;;21.60;80.60;;;;;;4933061;29;20441;-72
2022/04/29 12:05:06;;;;;;;4.63;3.10;;;21.30;77.30;;;;;;4926586;29;20190;-69
2022/04/29 12:07:40;;;;;;;3.10;2.90;;;21.30;79.60;;;;;;4933962;29;20457;-68
2022/04/29 12:10:30;;;;;;;4.20;3.03;;;21.20;80.20;;;;;;4933541;29;20456;-68
2022/04/29 12:13:00;;;;;;;4.00;3.17;;;21.30;79.60;;;;;;4932498;29;20497;-69
2022/04/29 12:15:30;;;;;;;3.03;2.83;;;21.30;78.50;;;;;;4933196;29;20860;-70
2022/04/29 12:18:01;;;;;;;3.27;2.40;;;20.90;77.60;;;;;;4933427;29;20500;-68
2022/04/29 12:20:28;;;;;;;2.93;2.60;;;20.90;78.60;;;;;;4940176;29;20428;-68
2022/04/29 12:22:54;;;;;;;6.63;3.20;;;20.80;77.60;;;;;;4950797;28;20815;-68
2022/04/29 12:25:22;;;;;;;4.20;3.37;;;21.00;79.60;;;;;;4952134;28;20934;-69
2022/04/29 12:28:09;;;;;;;2.87;2.67;;;21.20;78.30;;;;;;4952042;28;20417;-69
2022/04/29 12:36:10;;;;;;;4.93;2.77;;;21.20;75.70;;;;;;4934876;29;20593;-69
2022/04/29 12:38:37;;;;;;;3.37;3.07;;;21.40;72.80;;;;;;4933080;29;20448;-69
2022/04/29 12:41:21;;;;;;;2.50;2.40;;;21.30;73.70;;;;;;4932964;29;20860;-70
2022/04/29 12:43:47;;;;;;;3.03;2.83;;;21.50;75.50;;;;;;4946244;29;20416;-68
2022/04/29 12:46:20;;;;;;;2.90;2.70;;;21.50;73.50;;;;;;4951207;28;20802;-69
2022/04/29 12:48:55;;;;;;;2.67;2.47;;;21.60;75.30;;;;;;4947237;29;20309;-70
2022/04/29 12:51:32;;;;;;;3.00;2.70;;;21.80;73.70;;;;;;4950359;29;20454;-70
2022/04/29 12:54:05;;;;;;;4.27;3.00;;;21.70;74.90;;;;;;4951599;28;21193;-70
2022/04/29 12:56:34;;;;;;;3.53;2.90;;;21.90;75.00;;;;;;4951173;28;20455;-71
2022/04/29 12:59:03;;;;;;;6.27;2.90;;;22.00;76.50;;;;;;4941529;28;20535;-70
2022/04/29 13:01:39;;;;;;;4.20;3.83;;;22.10;74.90;;;;;;4930863;29;20438;-70
2022/04/29 13:04:06;;;;;;;3.37;3.17;;;21.90;74.50;;;;;;4932820;29;20421;-70
2022/04/29 13:06:34;;;;;;;7.83;3.80;;;21.60;73.40;;;;;;4932457;29;20500;-70
2022/04/29 13:09:02;;;;;;;3.33;3.13;;;21.50;73.10;;;;;;4932654;29;20413;-70
2022/04/29 13:11:29;;;;;;;3.33;3.13;;;21.70;76.50;;;;;;4931877;29;20445;-70
2022/04/29 13:13:55;;;;;;;3.50;3.30;;;21.90;74.60;;;;;;4943336;29;20428;-71
2022/04/29 13:16:22;;;;;;;3.70;3.40;;;21.80;75.10;;;;;;4945421;29;20466;-71
2022/04/29 13:18:48;;;;;;;3.90;3.50;;;21.70;77.80;;;;;;4948641;28;20211;-70
2022/04/29 13:21:15;;;;;;;4.03;3.40;;;21.50;73.80;;;;;;4942511;28;20449;-70
2022/04/29 13:23:42;;;;;;;6.70;4.07;;;21.50;73.80;;;;;;4932128;28;20424;-69
2022/04/29 13:26:08;;;;;;;4.90;3.43;;;21.30;74.40;;;;;;4932592;29;20544;-69
2022/04/29 13:28:35;;;;;;;4.13;2.73;;;21.20;76.60;;;;;;4932000;29;20433;-70
2022/04/29 13:31:03;;;;;;;3.73;3.30;;;21.30;75.80;;;;;;4932125;29;20445;-69
2022/04/29 13:33:29;;;;;;;3.50;3.20;;;21.20;77.00;;;;;;4933376;29;21014;-70
2022/04/29 13:35:55;;;;;;;2.97;2.63;;;21.20;75.80;;;;;;4932618;29;20567;-70
2022/04/29 13:38:22;;;;;;;3.90;3.13;;;21.10;76.90;;;;;;4934747;29;20208;-70
2022/04/29 13:40:48;;;;;;;3.70;3.40;;;21.00;76.10;;;;;;4935050;29;20448;-70
2022/04/29 13:43:14;;;;;;;3.83;3.63;;;20.70;75.40;;;;;;4933630;29;20463;-71
2022/04/29 13:45:40;;;;;;;8.23;3.53;;;20.70;75.50;;;;;;4935261;29;20417;-72
2022/04/29 13:48:08;;;;;;;7.93;4.37;;;20.60;76.50;;;;;;4934947;29;20243;-70
2022/04/29 13:50:34;;;;;;;3.03;2.83;;;20.70;76.90;;;;;;4934744;29;20480;-70
2022/04/29 13:53:14;;;;;;;3.53;3.23;;;20.70;78.20;;;;;;4934758;29;20810;-70
2022/04/29 13:55:50;;;;;;;3.37;3.17;;;20.70;77.60;;;;;;4935052;29;21040;-70
2022/04/29 13:58:17;;;;;;;10.83;3.10;;;20.80;77.60;;;;;;4934607;29;20423;-69
2022/04/29 14:00:47;;;;;;;3.30;3.10;;;20.90;79.40;;;;;;4934479;29;20778;-69
2022/04/29 14:03:16;;;;;;;2.97;2.77;;;20.80;80.60;;;;;;4934532;29;20504;-70
2022/04/29 14:05:42;;;;;;;3.50;3.20;;;20.80;80.30;;;;;;4934612;29;20800;-70
2022/04/29 14:08:08;;;;;;;8.30;3.60;;;20.90;79.10;;;;;;4932795;29;20413;-71
2022/04/29 14:10:34;;;;;;;3.30;3.00;;;20.70;77.00;;;;;;4934026;29;20188;-71
2022/04/29 14:13:00;;;;;;;6.50;2.70;;;20.80;79.20;;;;;;4934329;29;20830;-71
2022/04/29 14:15:27;;;;;;;7.40;3.30;;;20.90;78.10;;;;;;4934295;29;20469;-71
2022/04/29 14:17:52;;;;;;;7.33;3.10;;;21.00;78.30;;;;;;4933110;29;20425;-70
2022/04/29 14:20:18;;;;;;;4.60;3.23;;;21.10;79.10;;;;;;4934256;29;20925;-71
2022/04/29 14:22:47;;;;;;;5.10;3.07;;;21.10;79.60;;;;;;4934251;29;20532;-70
2022/04/29 14:25:12;;;;;;;7.70;7.00;;;21.20;79.80;;;;;;4934353;29;20240;-71
2022/04/29 14:27:39;;;;;;;4.03;2.97;;;21.30;77.90;;;;;;4934230;29;20433;-71
2022/04/29 14:30:07;;;;;;;3.40;3.20;;;21.30;81.50;;;;;;4934229;29;20185;-71
2022/04/29 14:32:34;;;;;;;3.15;2.95;;;21.40;80.30;;;;;;4933801;29;20860;-71
2022/04/29 14:35:02;;;;;;;6.63;3.65;;;21.60;79.80;;;;;;4933088;29;20440;-71
2022/04/29 14:37:29;;;;;;;6.50;3.57;;;21.60;80.60;;;;;;4934051;29;20322;-71
2022/04/29 14:39:55;;;;;;;3.87;2.60;;;21.40;81.10;;;;;;4934174;29;20422;-70
2022/04/29 14:42:21;;;;;;;5.53;3.80;;;21.20;80.80;;;;;;4933668;29;20464;-70
2022/04/29 14:44:47;;;;;;;6.43;3.50;;;21.20;81.70;;;;;;4934255;29;20468;-70
2022/04/29 14:47:12;;;;;;;3.77;3.43;;;21.20;82.80;;;;;;4933989;29;20188;-70
2022/04/29 14:49:38;;;;;;;3.33;3.03;;;21.30;84.10;;;;;;4934035;29;20186;-71
2022/04/29 14:52:04;;;;;;;4.00;3.60;;;21.20;83.50;;;;;;4933713;29;20614;-70
2022/04/29 14:54:30;;;;;;;4.80;3.50;;;21.20;81.70;;;;;;4933909;29;20524;-70